createdAt,value
2017-10-09T00:00:31.887Z,0.00
2017-10-09T00:01:31.878Z,0.00
2017-10-09T00:02:31.873Z,0.00
2017-10-09T00:03:31.870Z,0.00
2017-10-09T00:04:31.866Z,0.00
2017-10-09T00:05:31.861Z,0.00
2017-10-09T00:06:31.859Z,0.00
2017-10-09T00:07:31.856Z,0.00
2017-10-09T00:08:31.848Z,0.00
2017-10-09T00:09:31.848Z,0.00
2017-10-09T00:10:31.842Z,0.00
2017-10-09T00:11:31.839Z,0.00
2017-10-09T00:12:31.838Z,0.00
2017-10-09T00:13:31.829Z,0.00
2017-10-09T00:14:31.826Z,0.00
2017-10-09T00:15:31.822Z,0.00
2017-10-09T00:16:31.817Z,0.00
2017-10-09T00:17:31.813Z,0.00
2017-10-09T00:18:31.812Z,0.00
2017-10-09T00:19:31.806Z,0.00
2017-10-09T00:20:31.802Z,0.00
2017-10-09T00:21:31.798Z,0.00
2017-10-09T00:22:31.794Z,0.00
2017-10-09T00:23:31.790Z,0.00
2017-10-09T00:24:31.785Z,0.00
2017-10-09T00:25:31.781Z,0.00
2017-10-09T00:26:31.778Z,0.00
2017-10-09T00:27:31.774Z,0.00
2017-10-09T00:28:31.769Z,0.00
2017-10-09T00:29:31.765Z,0.00
2017-10-09T00:30:31.762Z,0.00
2017-10-09T00:31:31.759Z,0.00
2017-10-09T00:32:31.753Z,0.00
2017-10-09T00:33:31.750Z,0.00
2017-10-09T00:34:31.745Z,0.00
2017-10-09T00:35:31.743Z,0.00
2017-10-09T00:36:31.736Z,0.00
2017-10-09T00:37:31.733Z,0.00
2017-10-09T00:38:31.730Z,0.00
2017-10-09T00:39:31.724Z,0.00
2017-10-09T00:40:31.720Z,0.00
2017-10-09T00:41:31.716Z,0.00
2017-10-09T00:42:31.714Z,0.00
2017-10-09T00:43:31.709Z,0.00
2017-10-09T00:44:31.704Z,0.00
2017-10-09T00:45:31.703Z,0.00
2017-10-09T00:46:31.695Z,0.00
2017-10-09T00:47:31.692Z,0.00
2017-10-09T00:48:31.686Z,0.00
2017-10-09T00:49:31.684Z,0.00
2017-10-09T00:50:31.679Z,0.00
2017-10-09T00:51:31.675Z,0.00
2017-10-09T00:52:31.671Z,0.00
2017-10-09T00:53:31.667Z,0.00
2017-10-09T00:54:31.662Z,0.00
2017-10-09T00:55:31.658Z,0.00
2017-10-09T00:56:31.652Z,0.00
2017-10-09T00:57:31.650Z,0.00
2017-10-09T00:58:31.645Z,0.00
2017-10-09T00:59:31.642Z,0.00
2017-10-09T01:00:31.636Z,0.00
2017-10-09T01:01:31.633Z,0.00
2017-10-09T01:02:31.628Z,0.00
2017-10-09T01:03:31.625Z,0.00
2017-10-09T01:04:31.620Z,0.00
2017-10-09T01:05:31.616Z,0.00
2017-10-09T01:06:31.610Z,0.00
2017-10-09T01:07:31.608Z,0.00
2017-10-09T01:08:31.602Z,0.00
2017-10-09T01:09:31.598Z,0.00
2017-10-09T01:10:31.594Z,0.00
2017-10-09T01:11:31.591Z,0.00
2017-10-09T01:12:31.584Z,0.00
2017-10-09T01:13:31.581Z,0.00
2017-10-09T01:14:31.575Z,0.00
2017-10-09T01:15:31.572Z,0.00
2017-10-09T01:16:31.567Z,0.00
2017-10-09T01:17:31.562Z,0.00
2017-10-09T01:18:31.560Z,0.00
2017-10-09T01:19:31.554Z,0.00
2017-10-09T01:20:31.550Z,0.00
2017-10-09T01:21:31.544Z,0.00
2017-10-09T01:22:31.541Z,0.00
2017-10-09T01:23:31.536Z,0.00
2017-10-09T01:24:31.531Z,0.00
2017-10-09T01:25:31.529Z,0.00
2017-10-09T01:26:31.524Z,0.00
2017-10-09T01:27:31.520Z,0.00
2017-10-09T01:28:31.515Z,0.00
2017-10-09T01:29:31.511Z,0.00
2017-10-09T01:30:31.507Z,0.00
2017-10-09T01:31:31.502Z,0.00
2017-10-09T01:32:31.498Z,0.00
2017-10-09T01:33:31.493Z,0.00
2017-10-09T01:34:31.488Z,0.00
2017-10-09T01:35:31.485Z,0.00
2017-10-09T01:36:31.478Z,0.00
2017-10-09T01:37:31.475Z,0.00
2017-10-09T01:38:31.471Z,0.00
2017-10-09T01:39:31.467Z,0.00
2017-10-09T01:40:31.463Z,0.00
2017-10-09T01:41:31.458Z,0.00
2017-10-09T01:42:31.454Z,0.00
2017-10-09T01:43:31.449Z,0.00
2017-10-09T01:44:31.443Z,0.00
2017-10-09T01:45:31.440Z,0.00
2017-10-09T01:46:31.435Z,0.00
2017-10-09T01:47:31.432Z,0.00
2017-10-09T01:48:31.427Z,0.00
2017-10-09T01:49:31.422Z,0.00
2017-10-09T01:50:31.418Z,0.00
2017-10-09T01:51:31.413Z,0.00
2017-10-09T01:52:31.408Z,0.00
2017-10-09T01:53:31.404Z,0.00
2017-10-09T01:54:31.400Z,0.00
2017-10-09T01:55:31.397Z,0.00
2017-10-09T01:56:31.390Z,0.00
2017-10-09T01:57:31.387Z,0.00
2017-10-09T01:58:31.382Z,0.00
2017-10-09T01:59:31.382Z,0.00
2017-10-09T02:00:31.373Z,0.00
2017-10-09T02:01:31.369Z,0.00
2017-10-09T02:02:31.365Z,0.00
2017-10-09T02:03:31.360Z,0.00
2017-10-09T02:04:31.356Z,0.00
2017-10-09T02:05:31.351Z,0.00
2017-10-09T02:06:31.352Z,0.00
2017-10-09T02:07:31.340Z,0.00
2017-10-09T02:08:31.336Z,0.00
2017-10-09T02:09:31.332Z,0.00
2017-10-09T02:10:31.328Z,0.00
2017-10-09T02:11:31.324Z,0.00
2017-10-09T02:12:31.320Z,0.00
2017-10-09T02:13:31.314Z,0.00
2017-10-09T02:14:31.311Z,0.00
2017-10-09T02:15:31.305Z,0.00
2017-10-09T02:16:31.299Z,0.00
2017-10-09T02:17:31.296Z,0.00
2017-10-09T02:18:31.291Z,0.00
2017-10-09T02:19:31.288Z,0.00
2017-10-09T02:20:31.282Z,0.00
2017-10-09T02:21:31.278Z,0.00
2017-10-09T02:22:31.275Z,0.00
2017-10-09T02:23:31.269Z,0.00
2017-10-09T02:24:31.264Z,0.00
2017-10-09T02:25:31.259Z,0.00
2017-10-09T02:26:31.255Z,0.00
2017-10-09T02:27:31.251Z,0.00
2017-10-09T02:28:31.246Z,0.00
2017-10-09T02:29:31.242Z,0.00
2017-10-09T02:30:31.236Z,0.00
2017-10-09T02:31:31.233Z,0.00
2017-10-09T02:32:31.227Z,0.00
2017-10-09T02:33:31.224Z,0.00
2017-10-09T02:34:31.219Z,0.00
2017-10-09T02:35:31.215Z,0.00
2017-10-09T02:36:31.210Z,0.00
2017-10-09T02:37:31.204Z,0.00
2017-10-09T02:38:31.201Z,0.00
2017-10-09T02:39:31.194Z,0.00
2017-10-09T02:40:31.192Z,0.00
2017-10-09T02:41:31.186Z,0.00
2017-10-09T02:42:31.183Z,0.00
2017-10-09T02:43:31.179Z,0.00
2017-10-09T02:44:31.173Z,0.00
2017-10-09T02:45:31.167Z,0.00
2017-10-09T02:46:31.163Z,0.00
2017-10-09T02:47:31.159Z,0.00
2017-10-09T02:48:31.154Z,0.00
2017-10-09T02:49:31.150Z,0.00
2017-10-09T02:50:31.144Z,0.00
2017-10-09T02:51:31.141Z,0.00
2017-10-09T02:52:31.135Z,0.00
2017-10-09T02:53:31.131Z,0.00
2017-10-09T02:54:31.127Z,0.00
2017-10-09T02:55:31.122Z,0.00
2017-10-09T02:56:31.117Z,0.00
2017-10-09T02:57:31.112Z,0.00
2017-10-09T02:58:31.107Z,0.00
2017-10-09T02:59:31.104Z,0.00
2017-10-09T03:00:31.099Z,0.00
2017-10-09T03:01:31.093Z,0.00
2017-10-09T03:02:31.089Z,0.00
2017-10-09T03:03:31.084Z,0.00
2017-10-09T03:04:31.079Z,0.00
2017-10-09T03:05:31.073Z,0.00
2017-10-09T03:06:31.071Z,0.00
2017-10-09T03:07:31.065Z,0.00
2017-10-09T03:08:31.059Z,0.00
2017-10-09T03:09:31.055Z,0.00
2017-10-09T03:10:31.051Z,0.00
2017-10-09T03:11:31.047Z,0.00
2017-10-09T03:12:31.040Z,0.00
2017-10-09T03:13:31.037Z,0.00
2017-10-09T03:14:31.032Z,0.00
2017-10-09T03:15:31.029Z,0.00
2017-10-09T03:16:31.022Z,0.00
2017-10-09T03:17:31.020Z,0.00
2017-10-09T03:18:31.013Z,0.00
2017-10-09T03:19:31.008Z,0.00
2017-10-09T03:20:31.003Z,0.00
2017-10-09T03:21:30.998Z,0.00
2017-10-09T03:22:30.994Z,0.00
2017-10-09T03:23:30.989Z,0.00
2017-10-09T03:24:30.983Z,0.00
2017-10-09T03:25:30.981Z,0.00
2017-10-09T03:26:30.974Z,0.00
2017-10-09T03:27:30.971Z,0.00
2017-10-09T03:28:30.966Z,0.00
2017-10-09T03:29:30.961Z,0.00
2017-10-09T03:30:30.957Z,0.00
2017-10-09T03:31:30.954Z,0.00
2017-10-09T03:32:30.947Z,0.00
2017-10-09T03:33:30.943Z,0.00
2017-10-09T03:34:30.939Z,0.00
2017-10-09T03:35:30.934Z,0.00
2017-10-09T03:36:30.929Z,0.00
2017-10-09T03:37:30.923Z,0.00
2017-10-09T03:38:30.919Z,0.00
2017-10-09T03:39:30.916Z,0.00
2017-10-09T03:40:30.911Z,0.00
2017-10-09T03:41:30.906Z,0.00
2017-10-09T03:42:30.901Z,0.00
2017-10-09T03:43:30.897Z,0.00
2017-10-09T03:44:30.891Z,0.00
2017-10-09T03:45:30.887Z,0.00
2017-10-09T03:46:30.884Z,0.00
2017-10-09T03:47:30.878Z,0.00
2017-10-09T03:48:30.873Z,0.00
2017-10-09T03:49:30.869Z,0.00
2017-10-09T03:50:30.864Z,0.00
2017-10-09T03:51:30.861Z,0.00
2017-10-09T03:52:30.854Z,0.00
2017-10-09T03:53:30.850Z,0.00
2017-10-09T03:54:30.846Z,0.00
2017-10-09T03:55:30.841Z,0.00
2017-10-09T03:56:30.836Z,0.00
2017-10-09T03:57:30.833Z,0.00
2017-10-09T03:58:30.829Z,0.00
2017-10-09T03:59:30.823Z,0.00
2017-10-09T04:00:30.817Z,0.00
2017-10-09T04:01:30.813Z,0.00
2017-10-09T04:02:30.809Z,0.00
2017-10-09T04:03:30.805Z,0.00
2017-10-09T04:04:30.801Z,0.00
2017-10-09T04:05:30.796Z,0.00
2017-10-09T04:06:30.792Z,0.00
2017-10-09T04:07:30.787Z,0.00
2017-10-09T04:08:30.781Z,0.00
2017-10-09T04:09:30.778Z,0.00
2017-10-09T04:10:30.776Z,0.00
2017-10-09T04:11:30.769Z,0.00
2017-10-09T04:12:30.763Z,0.00
2017-10-09T04:13:30.759Z,0.00
2017-10-09T04:14:30.757Z,0.00
2017-10-09T04:15:30.754Z,0.00
2017-10-09T04:16:30.745Z,0.00
2017-10-09T04:17:30.741Z,0.00
2017-10-09T04:18:30.737Z,0.00
2017-10-09T04:19:30.734Z,0.00
2017-10-09T04:20:30.728Z,0.00
2017-10-09T04:21:30.725Z,0.00
2017-10-09T04:22:30.721Z,0.00
2017-10-09T04:23:30.718Z,0.00
2017-10-09T04:24:30.711Z,0.00
2017-10-09T04:25:30.707Z,0.00
2017-10-09T04:26:30.703Z,0.00
2017-10-09T04:27:30.699Z,0.00
2017-10-09T04:28:30.693Z,0.00
2017-10-09T04:29:30.690Z,0.00
2017-10-09T04:30:30.685Z,0.00
2017-10-09T04:31:30.682Z,0.00
2017-10-09T04:32:30.675Z,0.00
2017-10-09T04:33:30.673Z,0.00
2017-10-09T04:34:30.669Z,0.00
2017-10-09T04:35:30.668Z,0.00
2017-10-09T04:36:30.658Z,0.00
2017-10-09T04:37:30.655Z,0.00
2017-10-09T04:38:30.650Z,0.00
2017-10-09T04:39:30.646Z,0.00
2017-10-09T04:40:30.640Z,0.00
2017-10-09T04:41:30.637Z,0.00
2017-10-09T04:42:30.637Z,0.00
2017-10-09T04:43:30.628Z,0.00
2017-10-09T04:44:30.624Z,0.00
2017-10-09T04:45:30.620Z,0.00
2017-10-09T04:46:30.615Z,0.00
2017-10-09T04:47:30.611Z,0.00
2017-10-09T04:48:30.605Z,0.00
2017-10-09T04:49:30.601Z,0.00
2017-10-09T04:50:30.598Z,0.00
2017-10-09T04:51:30.595Z,0.00
2017-10-09T04:52:30.588Z,0.00
2017-10-09T04:53:30.583Z,0.00
2017-10-09T04:54:30.578Z,0.00
2017-10-09T04:55:30.574Z,0.00
2017-10-09T04:56:30.570Z,0.00
2017-10-09T04:57:30.567Z,0.00
2017-10-09T04:58:30.562Z,0.00
2017-10-09T04:59:30.558Z,0.00
2017-10-09T05:00:30.552Z,0.00
2017-10-09T05:01:30.547Z,0.00
2017-10-09T05:02:30.543Z,0.00
2017-10-09T05:03:30.539Z,0.00
2017-10-09T05:04:30.535Z,0.00
2017-10-09T05:05:30.531Z,0.00
2017-10-09T05:06:30.526Z,0.00
2017-10-09T05:07:30.521Z,0.00
2017-10-09T05:08:30.517Z,0.00
2017-10-09T05:09:30.512Z,0.00
2017-10-09T05:10:30.508Z,0.00
2017-10-09T05:11:30.508Z,0.00
2017-10-09T05:12:30.499Z,0.00
2017-10-09T05:13:30.494Z,0.00
2017-10-09T05:14:30.490Z,0.00
2017-10-09T05:15:30.486Z,0.00
2017-10-09T05:16:30.481Z,0.00
2017-10-09T05:17:30.478Z,0.00
2017-10-09T05:18:30.472Z,0.00
2017-10-09T05:19:30.468Z,0.00
2017-10-09T05:20:30.462Z,0.00
2017-10-09T05:21:30.460Z,0.00
2017-10-09T05:22:30.456Z,0.00
2017-10-09T05:23:30.450Z,0.00
2017-10-09T05:24:30.445Z,0.00
2017-10-09T05:25:30.441Z,0.00
2017-10-09T05:26:30.436Z,0.00
2017-10-09T05:27:30.435Z,0.00
2017-10-09T05:28:30.428Z,0.00
2017-10-09T05:29:30.423Z,0.00
2017-10-09T05:30:30.419Z,0.00
2017-10-09T05:31:30.416Z,0.00
2017-10-09T05:32:30.409Z,0.00
2017-10-09T05:33:30.405Z,0.00
2017-10-09T05:34:30.400Z,0.00
2017-10-09T05:35:30.397Z,0.00
2017-10-09T05:36:30.391Z,0.00
2017-10-09T05:37:30.387Z,0.00
2017-10-09T05:38:30.383Z,0.00
2017-10-09T05:39:30.379Z,0.00
2017-10-09T05:40:30.371Z,0.00
2017-10-09T05:41:30.368Z,5.63
2017-10-09T05:42:30.365Z,5.63
2017-10-09T05:43:30.361Z,5.63
2017-10-09T05:44:30.355Z,5.63
2017-10-09T05:45:30.350Z,5.63
2017-10-09T05:46:30.347Z,5.63
2017-10-09T05:47:30.342Z,5.63
2017-10-09T05:48:30.337Z,5.63
2017-10-09T05:49:30.333Z,5.63
2017-10-09T05:50:30.329Z,11.25
2017-10-09T05:51:30.325Z,11.25
2017-10-09T05:52:30.318Z,11.25
2017-10-09T05:53:30.315Z,11.25
2017-10-09T05:54:30.314Z,11.25
2017-10-09T05:55:30.306Z,11.25
2017-10-09T05:56:30.301Z,11.25
2017-10-09T05:57:30.298Z,11.25
2017-10-09T05:58:30.294Z,16.88
2017-10-09T05:59:30.291Z,16.88
2017-10-09T06:00:30.284Z,16.88
2017-10-09T06:01:30.280Z,22.50
2017-10-09T06:02:30.276Z,22.50
2017-10-09T06:03:30.273Z,22.50
2017-10-09T06:04:30.267Z,28.13
2017-10-09T06:05:30.264Z,28.13
2017-10-09T06:06:30.259Z,28.13
2017-10-09T06:07:30.255Z,28.13
2017-10-09T06:08:30.249Z,28.13
2017-10-09T06:09:30.247Z,28.13
2017-10-09T06:10:30.243Z,28.13
2017-10-09T06:11:30.242Z,33.75
2017-10-09T06:12:30.234Z,33.75
2017-10-09T06:13:30.229Z,33.75
2017-10-09T06:14:30.227Z,33.75
2017-10-09T06:15:30.221Z,33.75
2017-10-09T06:16:30.216Z,39.38
2017-10-09T06:17:30.213Z,39.38
2017-10-09T06:18:30.209Z,39.38
2017-10-09T06:19:30.208Z,45.00
2017-10-09T06:20:30.201Z,45.00
2017-10-09T06:21:30.197Z,45.00
2017-10-09T06:22:30.193Z,50.63
2017-10-09T06:23:30.188Z,50.63
2017-10-09T06:24:30.185Z,50.63
2017-10-09T06:25:30.180Z,56.25
2017-10-09T06:26:30.177Z,56.25
2017-10-09T06:27:30.172Z,61.88
2017-10-09T06:28:30.168Z,67.50
2017-10-09T06:29:30.164Z,73.13
2017-10-09T06:30:30.165Z,73.13
2017-10-09T06:31:30.157Z,78.75
2017-10-09T06:32:30.153Z,84.38
2017-10-09T06:33:30.151Z,84.38
2017-10-09T06:34:30.146Z,90.00
2017-10-09T06:35:30.141Z,90.00
2017-10-09T06:36:30.137Z,90.00
2017-10-09T06:37:30.134Z,84.38
2017-10-09T06:38:30.129Z,84.38
2017-10-09T06:39:30.127Z,84.38
2017-10-09T06:40:30.122Z,84.38
2017-10-09T06:41:30.118Z,84.38
2017-10-09T06:42:30.116Z,90.00
2017-10-09T06:43:30.112Z,90.00
2017-10-09T06:44:30.107Z,95.63
2017-10-09T06:45:30.102Z,101.25
2017-10-09T06:46:30.101Z,95.63
2017-10-09T06:47:30.097Z,90.00
2017-10-09T06:48:30.092Z,95.63
2017-10-09T06:49:30.090Z,101.25
2017-10-09T06:50:30.085Z,101.25
2017-10-09T06:51:30.082Z,106.88
2017-10-09T06:52:30.076Z,106.88
2017-10-09T06:53:30.075Z,106.88
2017-10-09T06:54:30.093Z,106.88
2017-10-09T06:55:30.070Z,112.50
2017-10-09T06:56:30.063Z,118.13
2017-10-09T06:57:30.062Z,123.75
2017-10-09T06:58:30.056Z,118.13
2017-10-09T06:59:30.053Z,118.13
2017-10-09T07:00:30.048Z,118.13
2017-10-09T07:01:30.047Z,112.50
2017-10-09T07:02:30.043Z,101.25
2017-10-09T07:03:30.040Z,90.00
2017-10-09T07:04:30.036Z,84.38
2017-10-09T07:05:30.031Z,78.75
2017-10-09T07:06:30.027Z,78.75
2017-10-09T07:07:30.025Z,73.13
2017-10-09T07:08:30.019Z,73.13
2017-10-09T07:09:30.016Z,73.13
2017-10-09T07:10:30.014Z,67.50
2017-10-09T07:11:30.011Z,67.50
2017-10-09T07:12:30.008Z,67.50
2017-10-09T07:13:30.003Z,73.13
2017-10-09T07:14:30.001Z,73.13
2017-10-09T07:15:29.998Z,73.13
2017-10-09T07:16:29.995Z,78.75
2017-10-09T07:17:29.989Z,78.75
2017-10-09T07:18:29.989Z,84.38
2017-10-09T07:19:29.985Z,101.25
2017-10-09T07:20:29.983Z,112.50
2017-10-09T07:21:29.977Z,129.38
2017-10-09T07:22:29.973Z,129.38
2017-10-09T07:23:29.971Z,135.00
2017-10-09T07:24:29.966Z,135.00
2017-10-09T07:25:29.965Z,135.00
2017-10-09T07:26:29.961Z,135.00
2017-10-09T07:27:29.961Z,140.63
2017-10-09T07:28:29.955Z,151.88
2017-10-09T07:29:29.952Z,146.25
2017-10-09T07:30:29.949Z,140.63
2017-10-09T07:31:29.945Z,140.63
2017-10-09T07:32:29.941Z,140.63
2017-10-09T07:33:29.939Z,140.63
2017-10-09T07:34:29.936Z,135.00
2017-10-09T07:35:29.934Z,135.00
2017-10-09T07:36:29.931Z,140.63
2017-10-09T07:37:29.927Z,151.88
2017-10-09T07:38:29.923Z,163.13
2017-10-09T07:39:29.922Z,191.25
2017-10-09T07:40:29.917Z,213.75
2017-10-09T07:41:29.914Z,225.00
2017-10-09T07:42:29.912Z,213.75
2017-10-09T07:43:29.910Z,191.25
2017-10-09T07:44:29.930Z,185.63
2017-10-09T07:45:29.903Z,196.88
2017-10-09T07:46:29.901Z,202.50
2017-10-09T07:47:29.899Z,196.88
2017-10-09T07:48:29.896Z,208.13
2017-10-09T07:49:29.892Z,208.13
2017-10-09T07:50:29.891Z,236.25
2017-10-09T07:51:29.889Z,253.13
2017-10-09T07:52:29.886Z,258.75
2017-10-09T07:53:29.883Z,270.00
2017-10-09T07:54:29.881Z,270.00
2017-10-09T07:55:29.878Z,253.13
2017-10-09T07:56:29.875Z,247.50
2017-10-09T07:57:29.874Z,253.13
2017-10-09T07:58:29.872Z,253.13
2017-10-09T07:59:29.870Z,236.25
2017-10-09T08:00:29.865Z,230.63
2017-10-09T08:01:29.864Z,225.00
2017-10-09T08:02:29.863Z,208.13
2017-10-09T08:03:29.861Z,208.13
2017-10-09T08:04:29.859Z,213.75
2017-10-09T08:05:29.856Z,236.25
2017-10-09T08:06:29.854Z,213.75
2017-10-09T08:07:29.852Z,202.50
2017-10-09T08:08:29.850Z,180.00
2017-10-09T08:09:29.849Z,168.75
2017-10-09T08:10:29.846Z,163.13
2017-10-09T08:11:29.848Z,180.00
2017-10-09T08:12:29.844Z,202.50
2017-10-09T08:13:29.840Z,213.75
2017-10-09T08:14:29.839Z,236.25
2017-10-09T08:15:29.837Z,264.38
2017-10-09T08:16:29.836Z,303.75
2017-10-09T08:17:29.835Z,331.88
2017-10-09T08:18:29.833Z,320.63
2017-10-09T08:19:29.831Z,320.63
2017-10-09T08:20:29.830Z,309.38
2017-10-09T08:21:29.829Z,270.00
2017-10-09T08:22:29.826Z,225.00
2017-10-09T08:23:29.825Z,202.50
2017-10-09T08:24:29.825Z,208.13
2017-10-09T08:25:29.821Z,225.00
2017-10-09T08:26:29.821Z,236.25
2017-10-09T08:27:29.818Z,253.13
2017-10-09T08:28:29.816Z,275.63
2017-10-09T08:29:29.816Z,309.38
2017-10-09T08:30:29.815Z,326.25
2017-10-09T08:31:29.819Z,320.63
2017-10-09T08:32:29.811Z,309.38
2017-10-09T08:33:29.812Z,286.88
2017-10-09T08:34:29.809Z,275.63
2017-10-09T08:35:29.807Z,258.75
2017-10-09T08:36:29.807Z,236.25
2017-10-09T08:37:29.806Z,196.88
2017-10-09T08:38:29.803Z,180.00
2017-10-09T08:39:29.805Z,163.13
2017-10-09T08:40:29.802Z,151.88
2017-10-09T08:41:29.800Z,135.00
2017-10-09T08:42:29.799Z,123.75
2017-10-09T08:43:29.799Z,123.75
2017-10-09T08:44:29.797Z,135.00
2017-10-09T08:45:29.796Z,146.25
2017-10-09T08:46:29.794Z,151.88
2017-10-09T08:47:29.797Z,168.75
2017-10-09T08:48:29.790Z,185.63
2017-10-09T08:49:29.790Z,196.88
2017-10-09T08:50:29.790Z,202.50
2017-10-09T08:51:29.789Z,202.50
2017-10-09T08:52:29.789Z,191.25
2017-10-09T08:53:29.786Z,191.25
2017-10-09T08:54:29.784Z,196.88
2017-10-09T08:55:29.784Z,208.13
2017-10-09T08:56:29.781Z,225.00
2017-10-09T08:57:29.781Z,219.38
2017-10-09T08:58:29.783Z,191.25
2017-10-09T08:59:29.778Z,174.38
2017-10-09T09:00:29.775Z,180.00
2017-10-09T09:01:29.775Z,191.25
2017-10-09T09:02:29.773Z,191.25
2017-10-09T09:03:29.773Z,191.25
2017-10-09T09:04:29.774Z,196.88
2017-10-09T09:05:29.770Z,202.50
2017-10-09T09:06:29.769Z,196.88
2017-10-09T09:07:29.769Z,213.75
2017-10-09T09:08:29.768Z,247.50
2017-10-09T09:09:29.765Z,275.63
2017-10-09T09:10:29.766Z,292.50
2017-10-09T09:11:29.764Z,309.38
2017-10-09T09:12:29.762Z,326.25
2017-10-09T09:13:29.762Z,360.00
2017-10-09T09:14:29.761Z,382.50
2017-10-09T09:15:29.760Z,382.50
2017-10-09T09:16:29.760Z,365.63
2017-10-09T09:17:29.760Z,365.63
2017-10-09T09:18:29.758Z,331.88
2017-10-09T09:19:29.758Z,371.25
2017-10-09T09:20:29.756Z,382.50
2017-10-09T09:21:29.753Z,405.00
2017-10-09T09:22:29.754Z,410.63
2017-10-09T09:23:29.755Z,393.75
2017-10-09T09:24:29.753Z,444.38
2017-10-09T09:25:29.753Z,399.38
2017-10-09T09:26:29.751Z,303.75
2017-10-09T09:27:29.753Z,326.25
2017-10-09T09:28:29.751Z,360.00
2017-10-09T09:29:29.749Z,315.00
2017-10-09T09:30:29.751Z,315.00
2017-10-09T09:31:29.751Z,270.00
2017-10-09T09:32:29.749Z,326.25
2017-10-09T09:33:29.754Z,286.88
2017-10-09T09:34:29.750Z,270.00
2017-10-09T09:35:29.750Z,247.50
2017-10-09T09:36:29.753Z,241.88
2017-10-09T09:37:29.751Z,264.38
2017-10-09T09:38:29.748Z,275.63
2017-10-09T09:39:29.748Z,225.00
2017-10-09T09:40:29.748Z,230.63
2017-10-09T09:41:29.750Z,225.00
2017-10-09T09:42:29.749Z,213.75
2017-10-09T09:43:29.749Z,202.50
2017-10-09T09:44:29.748Z,185.63
2017-10-09T09:45:29.746Z,196.88
2017-10-09T09:46:29.748Z,202.50
2017-10-09T09:47:29.748Z,230.63
2017-10-09T09:48:29.747Z,253.13
2017-10-09T09:49:29.749Z,258.75
2017-10-09T09:50:29.746Z,270.00
2017-10-09T09:51:29.747Z,292.50
2017-10-09T09:52:29.746Z,309.38
2017-10-09T09:53:29.746Z,326.25
2017-10-09T09:54:29.747Z,348.75
2017-10-09T09:55:29.747Z,343.13
2017-10-09T09:56:29.746Z,292.50
2017-10-09T09:57:29.746Z,253.13
2017-10-09T09:58:29.745Z,213.75
2017-10-09T09:59:29.747Z,185.63
2017-10-09T10:00:29.746Z,185.63
2017-10-09T10:01:29.746Z,191.25
2017-10-09T10:02:29.746Z,191.25
2017-10-09T10:03:29.746Z,219.38
2017-10-09T10:04:29.745Z,236.25
2017-10-09T10:05:29.744Z,253.13
2017-10-09T10:06:29.747Z,258.75
2017-10-09T10:07:29.746Z,275.63
2017-10-09T10:08:29.745Z,281.25
2017-10-09T10:09:29.746Z,258.75
2017-10-09T10:10:29.746Z,236.25
2017-10-09T10:11:29.749Z,219.38
2017-10-09T10:12:29.746Z,219.38
2017-10-09T10:13:29.744Z,225.00
2017-10-09T10:14:29.746Z,225.00
2017-10-09T10:15:29.746Z,225.00
2017-10-09T10:16:29.744Z,270.00
2017-10-09T10:17:29.746Z,253.13
2017-10-09T10:18:29.745Z,230.63
2017-10-09T10:19:29.748Z,253.13
2017-10-09T10:20:29.746Z,270.00
2017-10-09T10:21:29.745Z,275.63
2017-10-09T10:22:29.748Z,292.50
2017-10-09T10:23:29.750Z,303.75
2017-10-09T10:24:29.746Z,270.00
2017-10-09T10:25:29.746Z,225.00
2017-10-09T10:26:29.748Z,208.13
2017-10-09T10:27:29.747Z,264.38
2017-10-09T10:28:29.746Z,298.13
2017-10-09T10:29:29.747Z,348.75
2017-10-09T10:30:29.749Z,371.25
2017-10-09T10:31:29.749Z,382.50
2017-10-09T10:32:29.749Z,388.13
2017-10-09T10:33:29.748Z,393.75
2017-10-09T10:34:29.754Z,382.50
2017-10-09T10:35:29.751Z,371.25
2017-10-09T10:36:29.749Z,360.00
2017-10-09T10:37:29.750Z,337.50
2017-10-09T10:38:29.750Z,320.63
2017-10-09T10:39:29.751Z,275.63
2017-10-09T10:40:29.751Z,270.00
2017-10-09T10:41:29.753Z,286.88
2017-10-09T10:42:29.753Z,303.75
2017-10-09T10:43:29.754Z,326.25
2017-10-09T10:44:29.761Z,309.38
2017-10-09T10:45:29.756Z,303.75
2017-10-09T10:46:29.759Z,331.88
2017-10-09T10:47:29.756Z,365.63
2017-10-09T10:48:29.756Z,365.63
2017-10-09T10:49:29.757Z,315.00
2017-10-09T10:50:29.759Z,337.50
2017-10-09T10:51:29.760Z,376.88
2017-10-09T10:52:29.759Z,388.13
2017-10-09T10:53:29.761Z,343.13
2017-10-09T10:54:29.762Z,315.00
2017-10-09T10:55:29.763Z,365.63
2017-10-09T10:56:29.762Z,376.88
2017-10-09T10:57:29.765Z,320.63
2017-10-09T10:58:29.766Z,309.38
2017-10-09T10:59:29.767Z,315.00
2017-10-09T11:00:29.771Z,354.38
2017-10-09T11:01:29.769Z,337.50
2017-10-09T11:02:29.770Z,337.50
2017-10-09T11:03:29.772Z,331.88
2017-10-09T11:04:29.771Z,343.13
2017-10-09T11:05:29.773Z,360.00
2017-10-09T11:06:29.776Z,360.00
2017-10-09T11:07:29.775Z,360.00
2017-10-09T11:08:29.776Z,393.75
2017-10-09T11:09:29.778Z,382.50
2017-10-09T11:10:29.779Z,371.25
2017-10-09T11:11:29.780Z,388.13
2017-10-09T11:12:29.782Z,438.75
2017-10-09T11:13:29.782Z,450.00
2017-10-09T11:14:29.785Z,421.88
2017-10-09T11:15:29.786Z,331.88
2017-10-09T11:16:29.803Z,376.88
2017-10-09T11:17:29.788Z,444.38
2017-10-09T11:18:29.791Z,405.00
2017-10-09T11:19:29.792Z,337.50
2017-10-09T11:20:29.792Z,365.63
2017-10-09T11:21:29.795Z,382.50
2017-10-09T11:22:29.796Z,388.13
2017-10-09T11:23:29.799Z,343.13
2017-10-09T11:24:29.799Z,343.13
2017-10-09T11:25:29.802Z,303.75
2017-10-09T11:26:29.804Z,292.50
2017-10-09T11:27:29.805Z,303.75
2017-10-09T11:28:29.806Z,326.25
2017-10-09T11:29:29.807Z,331.88
2017-10-09T11:30:29.810Z,320.63
2017-10-09T11:31:29.811Z,315.00
2017-10-09T11:32:29.811Z,337.50
2017-10-09T11:33:29.814Z,360.00
2017-10-09T11:34:29.816Z,371.25
2017-10-09T11:35:29.818Z,371.25
2017-10-09T11:36:29.819Z,376.88
2017-10-09T11:37:29.820Z,371.25
2017-10-09T11:38:29.822Z,371.25
2017-10-09T11:39:29.823Z,348.75
2017-10-09T11:40:29.828Z,337.50
2017-10-09T11:41:29.827Z,348.75
2017-10-09T11:42:29.827Z,343.13
2017-10-09T11:43:29.829Z,331.88
2017-10-09T11:44:29.834Z,337.50
2017-10-09T11:45:29.833Z,337.50
2017-10-09T11:46:29.835Z,337.50
2017-10-09T11:47:29.837Z,303.75
2017-10-09T11:48:29.836Z,286.88
2017-10-09T11:49:29.840Z,303.75
2017-10-09T11:50:29.840Z,303.75
2017-10-09T11:51:29.842Z,286.88
2017-10-09T11:52:29.844Z,241.88
2017-10-09T11:53:29.847Z,213.75
2017-10-09T11:54:29.848Z,236.25
2017-10-09T11:55:29.850Z,253.13
2017-10-09T11:56:29.850Z,247.50
2017-10-09T11:57:29.853Z,225.00
2017-10-09T11:58:29.854Z,219.38
2017-10-09T11:59:29.857Z,208.13
2017-10-09T12:00:29.882Z,202.50
2017-10-09T12:01:29.859Z,202.50
2017-10-09T12:02:29.861Z,196.88
2017-10-09T12:03:29.864Z,157.50
2017-10-09T12:04:29.863Z,151.88
2017-10-09T12:05:29.866Z,140.63
2017-10-09T12:06:29.867Z,135.00
2017-10-09T12:07:29.867Z,135.00
2017-10-09T12:08:29.868Z,174.38
2017-10-09T12:09:29.871Z,208.13
2017-10-09T12:10:29.873Z,208.13
2017-10-09T12:11:29.874Z,208.13
2017-10-09T12:12:29.874Z,208.13
2017-10-09T12:13:29.875Z,219.38
2017-10-09T12:14:29.879Z,225.00
2017-10-09T12:15:29.880Z,230.63
2017-10-09T12:16:29.879Z,230.63
2017-10-09T12:17:29.879Z,230.63
2017-10-09T12:18:29.883Z,219.38
2017-10-09T12:19:29.883Z,258.75
2017-10-09T12:20:29.885Z,247.50
2017-10-09T12:21:29.897Z,264.38
2017-10-09T12:22:29.888Z,241.88
2017-10-09T12:23:29.889Z,236.25
2017-10-09T12:24:29.895Z,258.75
2017-10-09T12:25:29.891Z,258.75
2017-10-09T12:26:29.893Z,230.63
2017-10-09T12:27:29.893Z,180.00
2017-10-09T12:28:29.894Z,180.00
2017-10-09T12:29:29.897Z,174.38
2017-10-09T12:30:29.898Z,157.50
2017-10-09T12:31:29.904Z,151.88
2017-10-09T12:32:29.901Z,129.38
2017-10-09T12:33:29.902Z,129.38
2017-10-09T12:34:29.904Z,163.13
2017-10-09T12:35:29.904Z,180.00
2017-10-09T12:36:29.905Z,202.50
2017-10-09T12:37:29.913Z,230.63
2017-10-09T12:38:29.909Z,230.63
2017-10-09T12:39:29.910Z,241.88
2017-10-09T12:40:29.912Z,253.13
2017-10-09T12:41:29.912Z,270.00
2017-10-09T12:42:29.914Z,275.63
2017-10-09T12:43:29.917Z,286.88
2017-10-09T12:44:29.918Z,315.00
2017-10-09T12:45:29.917Z,303.75
2017-10-09T12:46:29.919Z,309.38
2017-10-09T12:47:29.921Z,303.75
2017-10-09T12:48:29.922Z,286.88
2017-10-09T12:49:29.924Z,258.75
2017-10-09T12:50:29.926Z,292.50
2017-10-09T12:51:29.928Z,292.50
2017-10-09T12:52:29.929Z,309.38